Huvudsida
METAR-TAF:

METAR-TAF

Flygplatser :

Don Mueang internationella flygplats

Bangkok, Thailand

latitud: 13-54-45N, longitud: 100-36-24E, höjd: 4 m

Aktuellt väderrapport

Denna rapport gjordes för 40 minuter sedan, klockan 11:00 UTC
Vind 10 kt från syd
Temperatur 36°C
Fuktighet 42%
Tryck 1004 hPa
Sikt 10 km eller mer
Få moln på en höjd av 3000 ft

METAR: VTBD 241100Z 19010KT 9999 FEW030 36/21 Q1004 NOSIG

Tid: 18:40 (11:40 UTC)

Väderprognos

Denna rapport gjordes för 6 timmar och 40 minuter sedan, klockan 05:00 UTC
Prognos gäller från 24 kl. 06 UTC till 25 kl. 12 UTC
Vind 10 kt från syd
Sikt 10 km eller mer
Få moln på en höjd av 2000 ft

TAF: VTBD 240500Z 2406/2512 19010KT 9999 FEW020

Aktuella väderrapporter och prognoser från 4000 flygplatser (METAR- och TAF-rapporter).

De tillgängliga stationerna syns som gula och röda prickar på kartan.

För musen över prickarna för att se namnen på stationerna.

Klicka sedan för att få väderrapporter och prognoser.

För att ändra kartan: Klicka på de gröna knapparna med ett svart kors på för att zooma in; den gröna knappen med ett streck på för att zooma ut; eller på de gröna pilarna för angränsande kartor.


METAR-TAF: